This demonstration page uses our WeatherBlox Daily Observations layout. Learn more.

Left ArrowRight Arrow

36.19886, -115.1175

Hourly Observations for December 7, 2020

Temp ( °F °C ) Dew Point ( °F °C ) Humidity (%) Winds ( mph kmh ) Pressure ( in mb ) Visibility ( mi km ) Precip ( " mm )
12:53 am 00:53 Clear 48 8.9 13 -10.6 24 24 NW 5 7 30.18 1022 10 16.0934 0 0
1:53 am 01:53 Clear 48 8.9 14 -10 25 25 N 5 7 30.19 1022 10 16.0934 0 0
2:53 am 02:53 Clear 48 8.9 14 -10 25 25 WNW 7 11 30.19 1022 10 16.0934 0 0
3:53 am 03:53 Clear 51 10.6 5 -15 15 15 N 7 11 30.19 1022 10 16.0934 0 0
4:53 am 04:53 Clear 51 10.6 6 -14.4 16 16 NNW 7 11 30.2 1023 10 16.0934 0 0
5:53 am 05:53 Clear 50 10 7 -13.9 17 17 Calm 30.24 1024 10 16.0934 0 0
6:53 am 06:53 Sunny 48 8.9 10 -12.2 21 21 Calm 30.26 1025 10 16.0934 0 0
7:53 am 07:53 Sunny 50 10 13 -10.6 22 22 WSW 7 11 30.28 1026 10 16.0934 0 0
8:53 am 08:53 Sunny 55 12.8 11 -11.7 17 17 Calm 30.29 1026 10 16.0934 0 0
9:53 am 09:53 Sunny 61 16.1 9 -12.8 13 13 Calm 30.29 1026 10 16.0934 0 0
10:53 am 10:53 Sunny 65 18.3 10 -12.2 11 11 Calm 30.27 1025 10 16.0934 0 0
11:53 am 11:53 Sunny 68 20 10 -12.2 10 10 Calm 30.23 1024 10 16.0934 0 0
12:53 pm 12:53 Sunny 71 21.7 9 -12.8 9 9 NE 3 6 30.21 1023 10 16.0934 0 0
1:53 pm 13:53 Sunny 71 21.7 8 -13.3 8 8 NW 3 6 30.2 1023 10 16.0934 0 0
2:53 pm 14:53 Sunny 71 21.7 9 -12.8 9 9 NNW 5 7 30.2 1023 10 16.0934 0 0
3:53 pm 15:53 Sunny 68 20 9 -12.8 10 10 NNW 7 11 30.19 1022 10 16.0934 0 0
4:53 pm 16:53 Clear 64 17.8 9 -12.8 11 11 NNE 5 7 30.22 1023 10 16.0934 0 0
5:53 pm 17:53 Clear 63 17.2 8 -13.3 11 11 NNW 10 17 30.24 1024 10 16.0934 0 0
6:53 pm 18:53 Clear 61 16.1 8 -13.3 12 12 NW 9 15 30.26 1025 10 16.0934 0 0
7:53 pm 19:53 Clear 62 16.7 8 -13.3 12 12 NW 6 9 30.27 1025 10 16.0934 0 0
8:53 pm 20:53 Clear 54 12.2 8 -13.3 16 16 VRB 3 6 30.29 1026 10 16.0934 0 0
11:53 pm 23:53 Clear 53 11.7 10 -12.2 18 18 Calm 30.28 1025 10 16.0934 0 0

Powered by AerisWeather